sensor_id;sensor_type;location;lat;lon;timestamp;pressure;altitude;pressure_sealevel;temperature;humidity
24336;BME280;33098;52.400;16.880;2023-04-29T00:01:56;100311.41;;;13.59;49.40
24336;BME280;33098;52.400;16.880;2023-04-29T00:04:24;100317.39;;;13.52;49.55
24336;BME280;33098;52.400;16.880;2023-04-29T00:06:51;100313.20;;;13.51;49.72
24336;BME280;33098;52.400;16.880;2023-04-29T00:09:18;100311.61;;;13.52;49.76
24336;BME280;33098;52.400;16.880;2023-04-29T00:11:48;100319.09;;;13.55;49.81
24336;BME280;33098;52.400;16.880;2023-04-29T00:14:15;100310.96;;;13.56;49.87
24336;BME280;33098;52.400;16.880;2023-04-29T00:16:47;100308.13;;;13.55;50.03
24336;BME280;33098;52.400;16.880;2023-04-29T00:19:17;100309.70;;;13.58;50.15
24336;BME280;33098;52.400;16.880;2023-04-29T00:21:44;100305.55;;;13.56;50.06
24336;BME280;33098;52.400;16.880;2023-04-29T00:24:10;100307.65;;;13.53;50.22
24336;BME280;33098;52.400;16.880;2023-04-29T00:26:37;100309.23;;;13.49;50.28
24336;BME280;33098;52.400;16.880;2023-04-29T00:29:06;100314.78;;;13.49;50.47
24336;BME280;33098;52.400;16.880;2023-04-29T00:31:32;100306.90;;;13.50;50.55
24336;BME280;33098;52.400;16.880;2023-04-29T00:33:59;100304.36;;;13.50;50.59
24336;BME280;33098;52.400;16.880;2023-04-29T00:36:26;100296.20;;;13.48;50.67
24336;BME280;33098;52.400;16.880;2023-04-29T00:38:53;100300.48;;;13.46;50.71
24336;BME280;33098;52.400;16.880;2023-04-29T00:41:20;100296.85;;;13.43;51.00
24336;BME280;33098;52.400;16.880;2023-04-29T00:43:50;100297.63;;;13.40;51.05
24336;BME280;33098;52.400;16.880;2023-04-29T00:46:20;100298.89;;;13.36;51.03
24336;BME280;33098;52.400;16.880;2023-04-29T00:48:46;100299.27;;;13.34;51.12
24336;BME280;33098;52.400;16.880;2023-04-29T00:51:15;100302.31;;;13.21;51.24
24336;BME280;33098;52.400;16.880;2023-04-29T00:53:43;100303.28;;;13.17;51.40
24336;BME280;33098;52.400;16.880;2023-04-29T00:56:12;100300.36;;;13.10;51.50
24336;BME280;33098;52.400;16.880;2023-04-29T00:58:43;100296.00;;;13.13;51.64
24336;BME280;33098;52.400;16.880;2023-04-29T01:01:15;100296.95;;;13.21;51.90
24336;BME280;33098;52.400;16.880;2023-04-29T01:03:45;100302.39;;;13.29;51.94
24336;BME280;33098;52.400;16.880;2023-04-29T01:06:36;100305.00;;;13.33;52.00
24336;BME280;33098;52.400;16.880;2023-04-29T01:12:17;100299.79;;;13.28;52.07
24336;BME280;33098;52.400;16.880;2023-04-29T01:14:53;100299.30;;;13.25;52.07
24336;BME280;33098;52.400;16.880;2023-04-29T01:17:24;100300.46;;;13.29;52.22
24336;BME280;33098;52.400;16.880;2023-04-29T01:19:57;100304.80;;;13.25;52.26
24336;BME280;33098;52.400;16.880;2023-04-29T01:22:24;100302.27;;;13.28;52.31
24336;BME280;33098;52.400;16.880;2023-04-29T01:25:03;100304.36;;;13.33;52.48
24336;BME280;33098;52.400;16.880;2023-04-29T01:28:18;100303.19;;;13.36;52.38
24336;BME280;33098;52.400;16.880;2023-04-29T01:31:04;100300.61;;;13.37;52.40
24336;BME280;33098;52.400;16.880;2023-04-29T01:37:13;100301.03;;;13.34;52.63
24336;BME280;33098;52.400;16.880;2023-04-29T01:42:23;100301.59;;;13.28;52.67
24336;BME280;33098;52.400;16.880;2023-04-29T01:45:05;100306.77;;;13.23;52.81
24336;BME280;33098;52.400;16.880;2023-04-29T01:47:32;100306.42;;;13.25;53.05
24336;BME280;33098;52.400;16.880;2023-04-29T01:50:00;100304.83;;;13.30;52.98
24336;BME280;33098;52.400;16.880;2023-04-29T01:52:28;100304.19;;;13.22;52.96
24336;BME280;33098;52.400;16.880;2023-04-29T01:54:56;100304.24;;;13.16;53.14
24336;BME280;33098;52.400;16.880;2023-04-29T01:57:26;100301.74;;;13.14;53.33
24336;BME280;33098;52.400;16.880;2023-04-29T02:00:06;100307.95;;;13.14;53.44
24336;BME280;33098;52.400;16.880;2023-04-29T02:02:42;100302.51;;;13.12;53.68
24336;BME280;33098;52.400;16.880;2023-04-29T02:05:15;100302.25;;;13.13;53.67
24336;BME280;33098;52.400;16.880;2023-04-29T02:07:46;100300.60;;;13.11;53.74
24336;BME280;33098;52.400;16.880;2023-04-29T02:10:15;100299.10;;;13.10;54.00
24336;BME280;33098;52.400;16.880;2023-04-29T02:12:42;100299.74;;;13.01;53.93
24336;BME280;33098;52.400;16.880;2023-04-29T02:15:09;100304.15;;;12.98;54.22
24336;BME280;33098;52.400;16.880;2023-04-29T02:17:36;100304.23;;;13.01;54.35
24336;BME280;33098;52.400;16.880;2023-04-29T02:20:04;100301.98;;;13.02;54.38
24336;BME280;33098;52.400;16.880;2023-04-29T02:22:34;100304.33;;;13.04;54.43
24336;BME280;33098;52.400;16.880;2023-04-29T02:25:04;100301.20;;;13.04;54.53
24336;BME280;33098;52.400;16.880;2023-04-29T02:27:32;100302.79;;;13.03;54.59
24336;BME280;33098;52.400;16.880;2023-04-29T02:29:59;100303.34;;;12.97;54.70
24336;BME280;33098;52.400;16.880;2023-04-29T02:32:25;100304.41;;;12.97;54.87
24336;BME280;33098;52.400;16.880;2023-04-29T02:34:56;100300.02;;;13.04;54.95
24336;BME280;33098;52.400;16.880;2023-04-29T02:37:28;100297.92;;;13.13;54.97
24336;BME280;33098;52.400;16.880;2023-04-29T02:39:54;100296.52;;;13.17;54.88
24336;BME280;33098;52.400;16.880;2023-04-29T02:42:21;100296.63;;;13.19;54.98
24336;BME280;33098;52.400;16.880;2023-04-29T02:44:48;100294.33;;;13.23;55.21
24336;BME280;33098;52.400;16.880;2023-04-29T02:47:15;100289.44;;;13.22;55.74
24336;BME280;33098;52.400;16.880;2023-04-29T02:49:41;100283.83;;;13.17;56.20
24336;BME280;33098;52.400;16.880;2023-04-29T02:52:10;100288.25;;;13.12;56.50
24336;BME280;33098;52.400;16.880;2023-04-29T02:54:38;100288.21;;;13.14;56.60
24336;BME280;33098;52.400;16.880;2023-04-29T02:57:05;100287.94;;;13.11;56.75
24336;BME280;33098;52.400;16.880;2023-04-29T02:59:36;100282.87;;;13.10;57.23
24336;BME280;33098;52.400;16.880;2023-04-29T03:02:03;100283.17;;;13.07;57.78
24336;BME280;33098;52.400;16.880;2023-04-29T03:04:30;100279.52;;;13.04;58.18
24336;BME280;33098;52.400;16.880;2023-04-29T03:07:01;100281.04;;;12.97;58.53
24336;BME280;33098;52.400;16.880;2023-04-29T03:09:28;100284.58;;;12.94;59.04
24336;BME280;33098;52.400;16.880;2023-04-29T03:11:55;100281.65;;;12.88;59.59
24336;BME280;33098;52.400;16.880;2023-04-29T03:14:22;100281.32;;;12.88;60.03
24336;BME280;33098;52.400;16.880;2023-04-29T03:16:48;100279.44;;;12.87;60.19
24336;BME280;33098;52.400;16.880;2023-04-29T03:19:16;100282.50;;;12.87;60.70
24336;BME280;33098;52.400;16.880;2023-04-29T03:21:42;100275.38;;;12.83;60.98
24336;BME280;33098;52.400;16.880;2023-04-29T03:24:10;100278.51;;;12.76;60.89
24336;BME280;33098;52.400;16.880;2023-04-29T03:26:37;100279.13;;;12.79;61.27
24336;BME280;33098;52.400;16.880;2023-04-29T03:29:04;100279.14;;;12.80;61.25
24336;BME280;33098;52.400;16.880;2023-04-29T03:31:32;100275.32;;;12.78;61.45
24336;BME280;33098;52.400;16.880;2023-04-29T03:33:59;100273.63;;;12.73;61.76
24336;BME280;33098;52.400;16.880;2023-04-29T03:36:26;100272.19;;;12.71;62.01
24336;BME280;33098;52.400;16.880;2023-04-29T03:39:05;100268.91;;;12.66;62.11
24336;BME280;33098;52.400;16.880;2023-04-29T03:41:32;100270.45;;;12.63;61.92
24336;BME280;33098;52.400;16.880;2023-04-29T03:43:59;100270.42;;;12.69;61.93
24336;BME280;33098;52.400;16.880;2023-04-29T03:46:29;100271.27;;;12.73;61.82
24336;BME280;33098;52.400;16.880;2023-04-29T03:48:56;100275.27;;;12.72;61.84
24336;BME280;33098;52.400;16.880;2023-04-29T03:51:28;100272.70;;;12.69;61.76
24336;BME280;33098;52.400;16.880;2023-04-29T03:54:03;100276.20;;;12.62;61.82
24336;BME280;33098;52.400;16.880;2023-04-29T03:56:30;100280.05;;;12.65;61.75
24336;BME280;33098;52.400;16.880;2023-04-29T03:58:56;100275.54;;;12.67;61.80
24336;BME280;33098;52.400;16.880;2023-04-29T04:01:25;100278.20;;;12.65;62.05
24336;BME280;33098;52.400;16.880;2023-04-29T04:03:52;100277.52;;;12.65;62.09
24336;BME280;33098;52.400;16.880;2023-04-29T04:06:19;100275.95;;;12.63;62.04
24336;BME280;33098;52.400;16.880;2023-04-29T04:08:46;100274.83;;;12.57;62.02
24336;BME280;33098;52.400;16.880;2023-04-29T04:11:17;100281.20;;;12.54;62.05
24336;BME280;33098;52.400;16.880;2023-04-29T04:14:02;100283.69;;;12.51;62.46
24336;BME280;33098;52.400;16.880;2023-04-29T04:16:31;100276.70;;;12.58;62.64
24336;BME280;33098;52.400;16.880;2023-04-29T04:18:58;100281.02;;;12.55;62.63
24336;BME280;33098;52.400;16.880;2023-04-29T04:21:27;100285.27;;;12.50;62.57
24336;BME280;33098;52.400;16.880;2023-04-29T04:24:02;100285.27;;;12.54;62.59
24336;BME280;33098;52.400;16.880;2023-04-29T04:26:31;100284.94;;;12.54;62.54
24336;BME280;33098;52.400;16.880;2023-04-29T04:29:04;100285.23;;;12.54;62.82
24336;BME280;33098;52.400;16.880;2023-04-29T04:31:44;100281.90;;;12.54;62.78
24336;BME280;33098;52.400;16.880;2023-04-29T04:34:11;100279.67;;;12.51;62.86
24336;BME280;33098;52.400;16.880;2023-04-29T04:36:38;100280.29;;;12.52;62.93
24336;BME280;33098;52.400;16.880;2023-04-29T04:39:09;100276.56;;;12.57;63.11
24336;BME280;33098;52.400;16.880;2023-04-29T04:41:35;100274.19;;;12.61;63.23
24336;BME280;33098;52.400;16.880;2023-04-29T04:44:05;100269.59;;;12.64;63.32
24336;BME280;33098;52.400;16.880;2023-04-29T04:46:50;100268.88;;;12.66;63.21
24336;BME280;33098;52.400;16.880;2023-04-29T04:49:33;100269.12;;;12.65;63.01
24336;BME280;33098;52.400;16.880;2023-04-29T04:52:01;100266.48;;;12.63;62.99
24336;BME280;33098;52.400;16.880;2023-04-29T04:54:27;100263.69;;;12.65;62.99
24336;BME280;33098;52.400;16.880;2023-04-29T04:57:01;100259.55;;;12.67;63.20
24336;BME280;33098;52.400;16.880;2023-04-29T04:59:34;100260.64;;;12.67;63.30
24336;BME280;33098;52.400;16.880;2023-04-29T05:02:02;100261.82;;;12.66;63.17
24336;BME280;33098;52.400;16.880;2023-04-29T05:04:30;100261.46;;;12.63;63.20
24336;BME280;33098;52.400;16.880;2023-04-29T05:07:00;100259.73;;;12.63;63.36
24336;BME280;33098;52.400;16.880;2023-04-29T05:09:30;100257.98;;;12.67;63.34
24336;BME280;33098;52.400;16.880;2023-04-29T05:11:57;100258.05;;;12.70;63.41
24336;BME280;33098;52.400;16.880;2023-04-29T05:14:25;100260.59;;;12.75;63.45
24336;BME280;33098;52.400;16.880;2023-04-29T05:16:58;100259.38;;;12.81;63.40
24336;BME280;33098;52.400;16.880;2023-04-29T05:19:29;100256.05;;;12.87;63.40
24336;BME280;33098;52.400;16.880;2023-04-29T05:21:56;100256.73;;;12.94;63.31
24336;BME280;33098;52.400;16.880;2023-04-29T05:24:23;100257.19;;;12.97;63.24
24336;BME280;33098;52.400;16.880;2023-04-29T05:26:50;100255.27;;;13.04;63.29
24336;BME280;33098;52.400;16.880;2023-04-29T05:29:18;100251.13;;;13.08;63.23
24336;BME280;33098;52.400;16.880;2023-04-29T05:31:53;100251.39;;;13.13;63.15
24336;BME280;33098;52.400;16.880;2023-04-29T05:34:22;100256.36;;;13.17;62.90
24336;BME280;33098;52.400;16.880;2023-04-29T05:36:53;100256.97;;;13.22;62.97
24336;BME280;33098;52.400;16.880;2023-04-29T05:39:23;100256.63;;;13.28;62.96
24336;BME280;33098;52.400;16.880;2023-04-29T05:42:02;100256.80;;;13.36;62.94
24336;BME280;33098;52.400;16.880;2023-04-29T05:44:38;100254.69;;;13.44;63.03
24336;BME280;33098;52.400;16.880;2023-04-29T05:47:07;100259.74;;;13.49;62.75
24336;BME280;33098;52.400;16.880;2023-04-29T05:49:38;100258.84;;;13.49;62.53
24336;BME280;33098;52.400;16.880;2023-04-29T05:52:10;100261.66;;;13.47;62.33
24336;BME280;33098;52.400;16.880;2023-04-29T05:54:41;100265.60;;;13.45;62.23
24336;BME280;33098;52.400;16.880;2023-04-29T05:57:11;100267.16;;;13.40;62.26
24336;BME280;33098;52.400;16.880;2023-04-29T05:59:39;100272.23;;;13.43;62.34
24336;BME280;33098;52.400;16.880;2023-04-29T06:02:06;100271.59;;;13.46;62.35
24336;BME280;33098;52.400;16.880;2023-04-29T06:04:34;100277.96;;;13.48;62.21
24336;BME280;33098;52.400;16.880;2023-04-29T06:07:13;100272.88;;;13.53;62.36
24336;BME280;33098;52.400;16.880;2023-04-29T06:09:55;100273.05;;;13.51;62.21
24336;BME280;33098;52.400;16.880;2023-04-29T06:12:28;100269.70;;;13.53;62.20
24336;BME280;33098;52.400;16.880;2023-04-29T06:14:57;100276.38;;;13.60;62.23
24336;BME280;33098;52.400;16.880;2023-04-29T06:17:31;100278.85;;;13.54;62.01
24336;BME280;33098;52.400;16.880;2023-04-29T06:19:58;100281.54;;;13.48;62.20
24336;BME280;33098;52.400;16.880;2023-04-29T06:22:24;100285.45;;;13.50;62.18
24336;BME280;33098;52.400;16.880;2023-04-29T06:24:55;100283.08;;;13.41;62.06
24336;BME280;33098;52.400;16.880;2023-04-29T06:27:35;100284.16;;;13.41;62.17
24336;BME280;33098;52.400;16.880;2023-04-29T06:30:02;100283.22;;;13.47;62.26
24336;BME280;33098;52.400;16.880;2023-04-29T06:32:30;100278.31;;;13.54;62.23
24336;BME280;33098;52.400;16.880;2023-04-29T06:34:58;100282.21;;;13.60;62.26
24336;BME280;33098;52.400;16.880;2023-04-29T06:37:28;100280.33;;;13.62;62.41
24336;BME280;33098;52.400;16.880;2023-04-29T06:40:21;100281.53;;;13.58;62.61
24336;BME280;33098;52.400;16.880;2023-04-29T06:43:06;100283.34;;;13.58;62.91
24336;BME280;33098;52.400;16.880;2023-04-29T06:45:59;100281.64;;;13.72;63.41
24336;BME280;33098;52.400;16.880;2023-04-29T06:48:35;100280.91;;;13.83;63.51
24336;BME280;33098;52.400;16.880;2023-04-29T06:51:03;100276.56;;;13.90;63.58
24336;BME280;33098;52.400;16.880;2023-04-29T06:53:30;100277.38;;;13.92;63.48
24336;BME280;33098;52.400;16.880;2023-04-29T06:55:57;100272.39;;;13.79;63.33
24336;BME280;33098;52.400;16.880;2023-04-29T06:58:24;100270.05;;;13.74;63.45
24336;BME280;33098;52.400;16.880;2023-04-29T07:00:54;100269.45;;;13.70;63.56
24336;BME280;33098;52.400;16.880;2023-04-29T07:03:22;100272.09;;;13.73;63.75
24336;BME280;33098;52.400;16.880;2023-04-29T07:05:52;100273.43;;;13.68;63.79
24336;BME280;33098;52.400;16.880;2023-04-29T07:08:18;100272.30;;;13.61;63.88
24336;BME280;33098;52.400;16.880;2023-04-29T07:10:55;100272.77;;;13.62;64.04
24336;BME280;33098;52.400;16.880;2023-04-29T07:13:24;100273.00;;;13.66;63.95
24336;BME280;33098;52.400;16.880;2023-04-29T07:15:55;100276.26;;;13.65;64.05
24336;BME280;33098;52.400;16.880;2023-04-29T07:18:22;100271.09;;;13.59;64.12
24336;BME280;33098;52.400;16.880;2023-04-29T07:20:49;100268.73;;;13.60;64.50
24336;BME280;33098;52.400;16.880;2023-04-29T07:23:19;100270.05;;;13.66;64.81
24336;BME280;33098;52.400;16.880;2023-04-29T07:25:49;100271.48;;;13.77;64.94
24336;BME280;33098;52.400;16.880;2023-04-29T07:28:18;100275.97;;;13.81;65.02
24336;BME280;33098;52.400;16.880;2023-04-29T07:30:50;100276.05;;;13.86;65.11
24336;BME280;33098;52.400;16.880;2023-04-29T07:33:28;100268.86;;;13.94;65.09
24336;BME280;33098;52.400;16.880;2023-04-29T07:35:55;100269.08;;;13.98;65.17
24336;BME280;33098;52.400;16.880;2023-04-29T07:38:32;100267.45;;;13.98;65.07
24336;BME280;33098;52.400;16.880;2023-04-29T07:41:08;100268.73;;;14.03;65.12
24336;BME280;33098;52.400;16.880;2023-04-29T07:43:41;100269.11;;;14.17;65.29
24336;BME280;33098;52.400;16.880;2023-04-29T07:46:10;100266.05;;;14.33;65.23
24336;BME280;33098;52.400;16.880;2023-04-29T07:48:49;100267.21;;;14.46;65.11
24336;BME280;33098;52.400;16.880;2023-04-29T07:51:17;100260.29;;;14.62;65.03
24336;BME280;33098;52.400;16.880;2023-04-29T07:53:44;100258.23;;;14.78;65.04
24336;BME280;33098;52.400;16.880;2023-04-29T07:56:11;100257.88;;;14.96;64.80
24336;BME280;33098;52.400;16.880;2023-04-29T07:58:39;100257.45;;;15.09;64.57
24336;BME280;33098;52.400;16.880;2023-04-29T08:01:09;100254.65;;;15.17;64.22
24336;BME280;33098;52.400;16.880;2023-04-29T08:03:42;100255.03;;;15.19;63.91
24336;BME280;33098;52.400;16.880;2023-04-29T08:06:14;100257.77;;;15.22;64.01
24336;BME280;33098;52.400;16.880;2023-04-29T08:08:43;100256.92;;;15.34;63.81
24336;BME280;33098;52.400;16.880;2023-04-29T08:11:17;100255.09;;;15.36;63.37
24336;BME280;33098;52.400;16.880;2023-04-29T08:13:45;100259.30;;;15.41;63.34
24336;BME280;33098;52.400;16.880;2023-04-29T08:16:18;100263.68;;;15.47;62.92
24336;BME280;33098;52.400;16.880;2023-04-29T08:18:49;100265.70;;;15.44;62.51
24336;BME280;33098;52.400;16.880;2023-04-29T08:21:16;100263.91;;;15.46;62.55
24336;BME280;33098;52.400;16.880;2023-04-29T08:23:44;100267.00;;;15.58;62.72
24336;BME280;33098;52.400;16.880;2023-04-29T08:26:11;100267.48;;;15.66;62.47
24336;BME280;33098;52.400;16.880;2023-04-29T08:28:40;100269.50;;;15.65;62.23
24336;BME280;33098;52.400;16.880;2023-04-29T08:31:20;100273.42;;;15.72;62.33
24336;BME280;33098;52.400;16.880;2023-04-29T08:33:53;100279.93;;;15.80;62.14
24336;BME280;33098;52.400;16.880;2023-04-29T08:36:20;100277.69;;;15.85;62.03
24336;BME280;33098;52.400;16.880;2023-04-29T08:38:57;100282.98;;;15.86;61.93
24336;BME280;33098;52.400;16.880;2023-04-29T08:41:27;100284.05;;;15.77;62.00
24336;BME280;33098;52.400;16.880;2023-04-29T08:43:54;100281.25;;;15.81;62.35
24336;BME280;33098;52.400;16.880;2023-04-29T08:46:25;100279.13;;;15.89;62.21
24336;BME280;33098;52.400;16.880;2023-04-29T08:48:55;100280.40;;;15.95;62.13
24336;BME280;33098;52.400;16.880;2023-04-29T08:51:26;100281.90;;;16.00;62.22
24336;BME280;33098;52.400;16.880;2023-04-29T08:53:55;100284.46;;;16.11;62.16
24336;BME280;33098;52.400;16.880;2023-04-29T08:56:25;100283.24;;;16.17;61.99
24336;BME280;33098;52.400;16.880;2023-04-29T08:58:56;100281.98;;;16.21;61.94
24336;BME280;33098;52.400;16.880;2023-04-29T09:01:27;100287.40;;;16.26;61.71
24336;BME280;33098;52.400;16.880;2023-04-29T09:04:08;100284.34;;;16.23;61.40
24336;BME280;33098;52.400;16.880;2023-04-29T09:06:38;100282.92;;;16.26;61.39
24336;BME280;33098;52.400;16.880;2023-04-29T09:09:06;100283.43;;;16.28;61.23
24336;BME280;33098;52.400;16.880;2023-04-29T09:11:34;100280.96;;;16.35;61.21
24336;BME280;33098;52.400;16.880;2023-04-29T09:14:02;100277.67;;;16.35;60.75
24336;BME280;33098;52.400;16.880;2023-04-29T09:16:30;100279.97;;;16.39;61.06
24336;BME280;33098;52.400;16.880;2023-04-29T09:18:57;100276.73;;;16.53;61.07
24336;BME280;33098;52.400;16.880;2023-04-29T09:24:02;100276.06;;;16.59;60.60
24336;BME280;33098;52.400;16.880;2023-04-29T09:26:41;100282.27;;;16.68;60.57
24336;BME280;33098;52.400;16.880;2023-04-29T09:31:41;100282.92;;;16.60;59.90
24336;BME280;33098;52.400;16.880;2023-04-29T09:34:09;100284.35;;;16.57;59.93
24336;BME280;33098;52.400;16.880;2023-04-29T09:36:45;100284.53;;;16.59;59.97
24336;BME280;33098;52.400;16.880;2023-04-29T09:44:22;100287.66;;;16.74;60.10
24336;BME280;33098;52.400;16.880;2023-04-29T09:46:58;100285.13;;;16.85;60.11
24336;BME280;33098;52.400;16.880;2023-04-29T09:49:39;100287.96;;;17.02;60.22
24336;BME280;33098;52.400;16.880;2023-04-29T09:52:13;100290.54;;;17.10;59.77
24336;BME280;33098;52.400;16.880;2023-04-29T09:54:43;100287.99;;;17.13;59.74
24336;BME280;33098;52.400;16.880;2023-04-29T09:57:14;100288.38;;;17.22;59.83
24336;BME280;33098;52.400;16.880;2023-04-29T09:59:43;100286.22;;;17.31;59.66
24336;BME280;33098;52.400;16.880;2023-04-29T10:02:17;100283.95;;;17.42;59.59
24336;BME280;33098;52.400;16.880;2023-04-29T10:04:47;100286.71;;;17.48;59.32
24336;BME280;33098;52.400;16.880;2023-04-29T10:07:20;100288.90;;;17.61;59.16
24336;BME280;33098;52.400;16.880;2023-04-29T10:09:49;100287.39;;;17.66;58.62
24336;BME280;33098;52.400;16.880;2023-04-29T10:12:19;100287.70;;;17.60;58.19
24336;BME280;33098;52.400;16.880;2023-04-29T10:15:00;100288.00;;;17.62;58.51
24336;BME280;33098;52.400;16.880;2023-04-29T10:20:14;100289.26;;;17.97;58.27
24336;BME280;33098;52.400;16.880;2023-04-29T10:22:47;100284.73;;;18.15;57.89
24336;BME280;33098;52.400;16.880;2023-04-29T10:25:18;100283.52;;;18.22;57.41
24336;BME280;33098;52.400;16.880;2023-04-29T10:27:46;100284.40;;;18.25;57.65
24336;BME280;33098;52.400;16.880;2023-04-29T10:30:17;100288.20;;;18.40;57.48
24336;BME280;33098;52.400;16.880;2023-04-29T10:32:46;100288.11;;;18.48;57.24
24336;BME280;33098;52.400;16.880;2023-04-29T10:35:16;100288.23;;;18.52;57.07
24336;BME280;33098;52.400;16.880;2023-04-29T10:37:55;100288.88;;;18.50;56.78
24336;BME280;33098;52.400;16.880;2023-04-29T10:40:41;100285.60;;;18.51;56.77
24336;BME280;33098;52.400;16.880;2023-04-29T10:43:11;100286.46;;;18.53;56.91
24336;BME280;33098;52.400;16.880;2023-04-29T10:45:38;100281.16;;;18.56;56.80
24336;BME280;33098;52.400;16.880;2023-04-29T10:48:10;100281.92;;;18.74;56.79
24336;BME280;33098;52.400;16.880;2023-04-29T10:53:19;100282.39;;;19.36;55.93
24336;BME280;33098;52.400;16.880;2023-04-29T10:55:47;100284.01;;;19.52;55.69
24336;BME280;33098;52.400;16.880;2023-04-29T10:58:41;100286.38;;;19.61;55.53
24336;BME280;33098;52.400;16.880;2023-04-29T11:01:15;100283.19;;;19.72;55.51
24336;BME280;33098;52.400;16.880;2023-04-29T11:06:15;100292.23;;;19.26;54.56
24336;BME280;33098;52.400;16.880;2023-04-29T11:08:43;100289.95;;;19.00;55.07
24336;BME280;33098;52.400;16.880;2023-04-29T11:11:12;100295.25;;;18.78;55.45
24336;BME280;33098;52.400;16.880;2023-04-29T11:13:41;100295.14;;;18.62;55.94
24336;BME280;33098;52.400;16.880;2023-04-29T11:16:12;100293.73;;;18.54;56.51
24336;BME280;33098;52.400;16.880;2023-04-29T11:19:05;100296.02;;;18.62;56.72
24336;BME280;33098;52.400;16.880;2023-04-29T11:21:45;100293.91;;;18.59;56.80
24336;BME280;33098;52.400;16.880;2023-04-29T11:24:13;100295.81;;;18.63;57.13
24336;BME280;33098;52.400;16.880;2023-04-29T11:26:43;100295.86;;;18.67;57.37
24336;BME280;33098;52.400;16.880;2023-04-29T11:29:14;100290.83;;;18.68;57.54
24336;BME280;33098;52.400;16.880;2023-04-29T11:31:41;100292.67;;;18.76;57.41
24336;BME280;33098;52.400;16.880;2023-04-29T11:34:10;100290.84;;;18.61;57.41
24336;BME280;33098;52.400;16.880;2023-04-29T11:36:38;100286.96;;;18.47;57.53
24336;BME280;33098;52.400;16.880;2023-04-29T11:39:08;100282.66;;;18.42;57.77
24336;BME280;33098;52.400;16.880;2023-04-29T11:41:41;100284.25;;;18.44;58.06
24336;BME280;33098;52.400;16.880;2023-04-29T11:44:10;100288.52;;;18.54;58.51
24336;BME280;33098;52.400;16.880;2023-04-29T11:46:37;100293.95;;;18.44;58.50
24336;BME280;33098;52.400;16.880;2023-04-29T11:49:04;100291.88;;;18.34;58.77
24336;BME280;33098;52.400;16.880;2023-04-29T11:51:31;100293.60;;;18.25;60.03
24336;BME280;33098;52.400;16.880;2023-04-29T11:53:58;100295.88;;;17.31;60.76
24336;BME280;33098;52.400;16.880;2023-04-29T11:56:25;100294.80;;;16.58;62.47
24336;BME280;33098;52.400;16.880;2023-04-29T11:58:53;100288.21;;;16.71;63.68
24336;BME280;33098;52.400;16.880;2023-04-29T12:01:25;100291.16;;;17.16;64.15
24336;BME280;33098;52.400;16.880;2023-04-29T12:03:59;100286.54;;;17.55;63.72
24336;BME280;33098;52.400;16.880;2023-04-29T12:06:27;100289.45;;;17.80;63.55
24336;BME280;33098;52.400;16.880;2023-04-29T12:08:58;100290.55;;;18.03;63.28
24336;BME280;33098;52.400;16.880;2023-04-29T12:11:25;100290.63;;;18.26;63.00
24336;BME280;33098;52.400;16.880;2023-04-29T12:14:00;100286.33;;;18.55;62.76
24336;BME280;33098;52.400;16.880;2023-04-29T12:16:32;100280.17;;;18.95;62.71
24336;BME280;33098;52.400;16.880;2023-04-29T12:19:03;100276.92;;;19.51;62.73
24336;BME280;33098;52.400;16.880;2023-04-29T12:21:33;100278.10;;;19.94;61.51
24336;BME280;33098;52.400;16.880;2023-04-29T12:24:01;100278.41;;;19.99;60.55
24336;BME280;33098;52.400;16.880;2023-04-29T12:26:33;100280.53;;;19.72;59.92
24336;BME280;33098;52.400;16.880;2023-04-29T12:29:01;100281.32;;;19.53;59.95
24336;BME280;33098;52.400;16.880;2023-04-29T12:31:32;100279.65;;;19.26;60.07
24336;BME280;33098;52.400;16.880;2023-04-29T12:34:03;100279.96;;;19.13;60.64
24336;BME280;33098;52.400;16.880;2023-04-29T12:36:30;100283.07;;;19.03;60.49
24336;BME280;33098;52.400;16.880;2023-04-29T12:38:58;100280.77;;;18.83;60.93
24336;BME280;33098;52.400;16.880;2023-04-29T12:41:43;100280.69;;;19.02;61.55
24336;BME280;33098;52.400;16.880;2023-04-29T12:44:10;100275.67;;;19.37;61.57
24336;BME280;33098;52.400;16.880;2023-04-29T12:46:39;100274.95;;;19.57;61.38
24336;BME280;33098;52.400;16.880;2023-04-29T12:49:10;100273.50;;;19.75;61.43
24336;BME280;33098;52.400;16.880;2023-04-29T12:51:37;100273.45;;;19.82;60.99
24336;BME280;33098;52.400;16.880;2023-04-29T12:54:04;100274.70;;;19.85;60.77
24336;BME280;33098;52.400;16.880;2023-04-29T12:56:32;100273.56;;;19.97;60.59
24336;BME280;33098;52.400;16.880;2023-04-29T12:59:07;100274.08;;;20.02;59.99
24336;BME280;33098;52.400;16.880;2023-04-29T13:01:36;100275.58;;;20.03;59.71
24336;BME280;33098;52.400;16.880;2023-04-29T13:04:05;100279.24;;;19.96;59.28
24336;BME280;33098;52.400;16.880;2023-04-29T13:06:34;100273.78;;;19.89;59.37
24336;BME280;33098;52.400;16.880;2023-04-29T13:09:06;100271.79;;;19.92;59.56
24336;BME280;33098;52.400;16.880;2023-04-29T13:11:33;100268.69;;;19.96;60.14
24336;BME280;33098;52.400;16.880;2023-04-29T13:14:02;100265.48;;;20.06;60.01
24336;BME280;33098;52.400;16.880;2023-04-29T13:16:35;100263.36;;;20.01;59.46
24336;BME280;33098;52.400;16.880;2023-04-29T13:19:05;100272.85;;;19.91;59.35
24336;BME280;33098;52.400;16.880;2023-04-29T13:21:32;100264.48;;;19.87;59.46
24336;BME280;33098;52.400;16.880;2023-04-29T13:24:02;100264.77;;;19.85;59.44
24336;BME280;33098;52.400;16.880;2023-04-29T13:26:32;100266.48;;;19.84;59.07